createdAt,value
2019-06-08T00:00:08.453Z,83.10
2019-06-08T00:02:39.915Z,83.70
2019-06-08T00:05:12.572Z,82.80
2019-06-08T00:07:43.915Z,82.50
2019-06-08T00:10:14.967Z,82.30
2019-06-08T00:12:46.297Z,81.90
2019-06-08T00:15:18.653Z,82.50
2019-06-08T00:17:49.924Z,82.40
2019-06-08T00:20:21.888Z,82.10
2019-06-08T00:22:52.879Z,81.90
2019-06-08T00:25:24.225Z,82.50
2019-06-08T00:27:55.448Z,82.50
2019-06-08T00:30:26.574Z,81.60
2019-06-08T00:32:57.696Z,82.30
2019-06-08T00:35:28.458Z,81.80
2019-06-08T00:37:59.366Z,81.30
2019-06-08T00:40:30.232Z,81.40
2019-06-08T00:43:01.126Z,80.50
2019-06-08T00:45:32.135Z,80.40
2019-06-08T00:48:02.986Z,79.80
2019-06-08T00:50:33.981Z,78.90
2019-06-08T00:53:04.974Z,78.40
2019-06-08T00:55:35.828Z,78.30
2019-06-08T00:58:27.323Z,78.60
2019-06-08T01:00:58.178Z,78.50
2019-06-08T01:03:30.038Z,78.30
2019-06-08T01:06:00.888Z,77.60
2019-06-08T01:08:31.761Z,77.90
2019-06-08T01:11:02.764Z,76.90
2019-06-08T01:13:34.169Z,76.50
2019-06-08T01:16:04.954Z,76.60
2019-06-08T01:18:35.745Z,76.40
2019-06-08T01:21:07.084Z,76.60
2019-06-08T01:23:37.991Z,76.60
2019-06-08T01:26:08.874Z,76.00
2019-06-08T01:28:40.024Z,75.60
2019-06-08T01:31:10.890Z,75.70
2019-06-08T01:33:41.777Z,75.80
2019-06-08T01:36:12.641Z,75.70
2019-06-08T01:38:43.633Z,75.50
2019-06-08T01:41:14.571Z,73.80
2019-06-08T01:43:45.479Z,73.90
2019-06-08T01:46:16.499Z,74.00
2019-06-08T01:48:47.255Z,72.90
2019-06-08T01:51:18.152Z,72.60
2019-06-08T01:53:49.236Z,72.00
2019-06-08T01:56:20.207Z,72.80
2019-06-08T01:58:51.146Z,72.80
2019-06-08T02:01:23.393Z,72.70
2019-06-08T02:03:55.075Z,72.00
2019-06-08T02:06:26.233Z,71.90
2019-06-08T02:08:57.136Z,71.40
2019-06-08T02:11:28.798Z,71.20
2019-06-08T02:14:01.254Z,70.70
2019-06-08T02:16:33.267Z,70.60
2019-06-08T02:19:04.345Z,69.70
2019-06-08T02:21:35.314Z,70.80
2019-06-08T02:24:06.157Z,70.40
2019-06-08T02:26:36.923Z,69.60
2019-06-08T02:29:07.712Z,69.30
2019-06-08T02:31:38.899Z,68.80
2019-06-08T02:34:09.948Z,68.90
2019-06-08T02:36:40.928Z,69.30
2019-06-08T02:39:12.132Z,68.30
2019-06-08T02:41:43.054Z,67.00
2019-06-08T02:44:13.939Z,65.90
2019-06-08T02:46:45.103Z,66.90
2019-06-08T02:49:16.045Z,66.90
2019-06-08T02:51:47.111Z,66.00
2019-06-08T02:54:18.004Z,65.70
2019-06-08T02:56:49.076Z,64.80
2019-06-08T02:59:20.055Z,65.30
2019-06-08T03:01:50.901Z,64.70
2019-06-08T03:04:22.258Z,64.00
2019-06-08T03:06:53.667Z,64.00
2019-06-08T03:09:24.504Z,63.90
2019-06-08T03:11:55.455Z,63.10
2019-06-08T03:14:30.848Z,62.90
2019-06-08T03:17:01.668Z,62.00
2019-06-08T03:19:33.359Z,61.50
2019-06-08T03:22:04.522Z,61.10
2019-06-08T03:24:38.740Z,60.80
2019-06-08T03:27:09.805Z,60.20
2019-06-08T03:29:42.168Z,59.60
2019-06-08T03:32:12.501Z,59.00
2019-06-08T03:34:54.765Z,62.30
2019-06-08T03:37:15.856Z,59.30
2019-06-08T03:39:46.886Z,58.60
2019-06-08T03:42:18.251Z,57.80
2019-06-08T03:44:49.213Z,57.10
2019-06-08T03:47:20.282Z,56.10
2019-06-08T03:49:56.746Z,57.70
2019-06-08T03:52:23.524Z,58.90
2019-06-08T03:54:54.508Z,60.00
2019-06-08T03:57:25.508Z,61.00
2019-06-08T03:59:56.500Z,60.90
2019-06-08T04:02:27.622Z,61.00
2019-06-08T04:04:59.209Z,61.90
2019-06-08T04:07:30.141Z,62.30
2019-06-08T04:10:01.126Z,60.70
2019-06-08T04:12:32.081Z,60.20
2019-06-08T04:15:04.248Z,60.60
2019-06-08T04:17:35.224Z,60.80
2019-06-08T04:20:11.497Z,61.50
2019-06-08T04:22:42.419Z,62.50
2019-06-08T04:25:14.670Z,61.50
2019-06-08T04:27:46.980Z,62.10
2019-06-08T04:30:17.838Z,61.70
2019-06-08T04:32:49.712Z,62.30
2019-06-08T04:35:20.897Z,62.30
2019-06-08T04:37:52.094Z,61.70
2019-06-08T04:40:23.276Z,60.60
2019-06-08T04:42:54.209Z,61.00
2019-06-08T04:45:25.057Z,59.30
2019-06-08T04:47:56.035Z,59.50
2019-06-08T04:50:26.856Z,59.40
2019-06-08T04:52:57.588Z,59.10
2019-06-08T04:55:28.409Z,57.70
2019-06-08T04:57:59.329Z,57.80
2019-06-08T05:00:31.365Z,56.60
2019-06-08T05:03:02.590Z,57.20
2019-06-08T05:05:54.325Z,56.00
2019-06-08T05:08:25.309Z,56.10
2019-06-08T05:10:56.442Z,56.20
2019-06-08T05:13:27.476Z,56.30
2019-06-08T05:15:58.621Z,56.10
2019-06-08T05:18:29.605Z,55.30
2019-06-08T05:21:00.434Z,55.60
2019-06-08T05:23:31.566Z,55.50
2019-06-08T05:26:02.452Z,54.90
2019-06-08T05:28:33.288Z,56.00
2019-06-08T05:31:04.276Z,57.30
2019-06-08T05:33:35.237Z,57.30
2019-06-08T05:36:06.457Z,56.40
2019-06-08T05:38:37.795Z,56.70
2019-06-08T05:41:08.702Z,57.10
2019-06-08T05:43:39.771Z,58.30
2019-06-08T05:46:10.628Z,58.20
2019-06-08T05:48:41.909Z,58.30
2019-06-08T05:51:12.915Z,58.60
2019-06-08T05:53:43.845Z,57.70
2019-06-08T05:56:14.876Z,57.80
2019-06-08T05:58:45.996Z,58.10
2019-06-08T06:01:17.224Z,58.00
2019-06-08T06:03:48.722Z,58.20
2019-06-08T06:06:20.338Z,59.00
2019-06-08T06:08:51.173Z,58.70
2019-06-08T06:11:21.928Z,57.80
2019-06-08T06:13:52.934Z,57.80
2019-06-08T06:16:25.297Z,58.00
2019-06-08T06:19:08.457Z,57.70
2019-06-08T06:21:39.392Z,57.70
2019-06-08T06:24:11.593Z,57.80
2019-06-08T06:26:43.232Z,57.00
2019-06-08T06:29:14.273Z,57.30
2019-06-08T06:31:45.819Z,56.80
2019-06-08T06:34:16.879Z,57.20
2019-06-08T06:36:47.791Z,57.30
2019-06-08T06:39:18.736Z,56.50
2019-06-08T06:41:49.954Z,56.80
2019-06-08T06:44:21.043Z,56.10
2019-06-08T06:46:52.503Z,55.10
2019-06-08T06:49:23.499Z,55.60
2019-06-08T06:51:54.341Z,55.50
2019-06-08T06:54:25.239Z,55.50
2019-06-08T06:56:56.275Z,56.60
2019-06-08T06:59:27.170Z,56.90
2019-06-08T07:01:58.208Z,56.10
2019-06-08T07:04:29.207Z,54.80
2019-06-08T07:07:00.197Z,55.20
2019-06-08T07:09:31.224Z,56.30
2019-06-08T07:12:02.166Z,55.60
2019-06-08T07:17:45.943Z,55.40
2019-06-08T07:23:08.674Z,54.60
2019-06-08T07:25:39.544Z,54.60
2019-06-08T07:28:10.556Z,55.30
2019-06-08T07:30:41.419Z,55.80
2019-06-08T07:33:12.356Z,55.90
2019-06-08T07:35:43.397Z,54.90
2019-06-08T07:38:33.704Z,54.10
2019-06-08T07:41:04.711Z,54.60
2019-06-08T07:43:36.501Z,55.40
2019-06-08T07:46:07.462Z,55.70
2019-06-08T07:48:38.494Z,56.10
2019-06-08T07:51:09.515Z,56.30
2019-06-08T07:53:53.571Z,55.50
2019-06-08T07:56:19.558Z,54.90
2019-06-08T08:01:40.763Z,55.30
2019-06-08T08:04:11.582Z,55.20
2019-06-08T08:06:42.431Z,55.10
2019-06-08T08:09:15.767Z,55.10
2019-06-08T08:11:46.563Z,55.90
2019-06-08T08:14:18.991Z,55.40
2019-06-08T08:16:50.928Z,55.50
2019-06-08T08:19:23.074Z,55.50
2019-06-08T08:21:54.954Z,55.80
2019-06-08T08:24:27.153Z,55.70
2019-06-08T08:27:02.057Z,55.50
2019-06-08T08:29:34.173Z,55.00
2019-06-08T08:32:07.441Z,55.30
2019-06-08T08:34:38.147Z,55.70
2019-06-08T08:37:14.832Z,55.10
2019-06-08T08:39:47.192Z,55.20
2019-06-08T08:42:18.192Z,54.60
2019-06-08T08:44:51.162Z,54.50
2019-06-08T08:47:21.097Z,54.60
2019-06-08T08:49:56.775Z,55.30
2019-06-08T08:52:36.840Z,55.60
2019-06-08T08:55:03.227Z,54.80
2019-06-08T08:57:35.203Z,54.50
2019-06-08T09:00:09.307Z,54.30
2019-06-08T09:02:43.512Z,53.80
2019-06-08T09:05:17.998Z,54.50
2019-06-08T09:07:52.015Z,55.00
2019-06-08T09:10:25.162Z,55.40
2019-06-08T09:12:58.856Z,55.50
2019-06-08T09:15:31.432Z,55.80
2019-06-08T09:18:03.338Z,55.50
2019-06-08T09:20:40.370Z,54.90
2019-06-08T09:23:15.736Z,54.80
2019-06-08T09:25:40.745Z,54.00
2019-06-08T09:28:12.269Z,54.30
2019-06-08T09:30:43.129Z,54.60
2019-06-08T09:33:14.318Z,54.80
2019-06-08T09:35:47.701Z,55.00
2019-06-08T09:38:18.637Z,55.30
2019-06-08T09:40:54.856Z,55.00
2019-06-08T09:43:24.698Z,54.80
2019-06-08T09:45:58.760Z,55.40
2019-06-08T09:48:29.363Z,55.00
2019-06-08T09:51:02.836Z,55.20
2019-06-08T09:53:37.480Z,55.60
2019-06-08T09:56:07.369Z,56.10
2019-06-08T09:58:41.382Z,56.00
2019-06-08T10:01:12.858Z,56.00
2019-06-08T10:03:43.955Z,56.00
2019-06-08T10:06:18.027Z,56.00
2019-06-08T10:08:48.069Z,56.00
2019-06-08T10:11:19.049Z,56.50
2019-06-08T10:13:49.948Z,56.00
2019-06-08T10:16:21.443Z,56.90
2019-06-08T10:18:52.353Z,56.70
2019-06-08T10:21:28.204Z,56.60
2019-06-08T10:24:00.623Z,56.90
2019-06-08T10:26:28.901Z,57.30
2019-06-08T10:29:03.682Z,57.30
2019-06-08T10:31:39.895Z,57.30
2019-06-08T10:34:10.701Z,57.50
2019-06-08T10:36:38.483Z,57.80
2019-06-08T10:39:12.707Z,58.40
2019-06-08T10:41:43.753Z,58.60
2019-06-08T10:44:14.767Z,58.70
2019-06-08T10:46:48.111Z,59.00
2019-06-08T10:49:18.623Z,59.20
2019-06-08T10:51:49.806Z,59.20
2019-06-08T10:54:21.044Z,59.10
2019-06-08T10:56:52.168Z,59.40
2019-06-08T10:59:23.742Z,59.30
2019-06-08T11:01:55.086Z,59.30
2019-06-08T11:04:28.505Z,59.30
2019-06-08T11:07:04.338Z,59.60
2019-06-08T11:09:30.992Z,60.00
2019-06-08T11:12:03.188Z,59.50
2019-06-08T11:14:34.302Z,59.80
2019-06-08T11:17:08.302Z,60.10
2019-06-08T11:19:38.064Z,60.30
2019-06-08T11:22:14.299Z,60.60
2019-06-08T11:24:43.078Z,60.90
2019-06-08T11:27:13.860Z,61.10
2019-06-08T11:29:47.624Z,61.10
2019-06-08T11:32:18.366Z,61.50
2019-06-08T11:34:49.424Z,61.70
2019-06-08T11:37:21.103Z,61.90
2019-06-08T11:39:52.072Z,62.30
2019-06-08T11:42:25.559Z,62.60
2019-06-08T11:44:55.425Z,62.80
2019-06-08T11:47:27.779Z,63.10
2019-06-08T11:50:00.421Z,63.40
2019-06-08T11:52:30.935Z,63.60
2019-06-08T11:55:02.546Z,63.90
2019-06-08T11:57:34.422Z,64.00
2019-06-08T12:00:15.104Z,64.00
2019-06-08T12:02:41.298Z,64.20
2019-06-08T12:05:14.160Z,64.20
2019-06-08T12:07:44.425Z,64.30
2019-06-08T12:10:17.646Z,64.50
2019-06-08T12:12:48.058Z,64.40
2019-06-08T12:15:21.142Z,64.60
2019-06-08T12:17:51.338Z,64.80
2019-06-08T12:20:24.425Z,65.90
2019-06-08T12:22:54.624Z,65.10
2019-06-08T12:25:25.741Z,65.20
2019-06-08T12:27:58.427Z,65.20
2019-06-08T12:30:29.651Z,65.10
2019-06-08T12:33:00.782Z,65.10
2019-06-08T12:35:31.635Z,65.10
2019-06-08T12:38:03.632Z,64.90
2019-06-08T12:40:34.532Z,64.20
2019-06-08T12:43:07.839Z,64.10
2019-06-08T12:45:38.196Z,64.00
2019-06-08T12:48:14.644Z,63.90
2019-06-08T12:50:41.604Z,63.30
2019-06-08T12:53:15.944Z,63.20
2019-06-08T12:55:44.871Z,63.10
2019-06-08T12:58:17.127Z,62.70
2019-06-08T13:00:48.466Z,62.50
2019-06-08T13:03:19.443Z,62.60
2019-06-08T13:05:50.396Z,62.30
2019-06-08T13:08:21.843Z,62.30
2019-06-08T13:10:53.567Z,62.20
2019-06-08T13:13:24.739Z,62.20
2019-06-08T13:15:57.905Z,62.00
2019-06-08T13:18:27.907Z,61.90
2019-06-08T13:21:03.274Z,61.30
2019-06-08T13:23:32.784Z,61.80
2019-06-08T13:26:04.006Z,61.90
2019-06-08T13:28:34.831Z,62.20
2019-06-08T13:31:07.834Z,62.10
2019-06-08T13:33:38.276Z,62.30
2019-06-08T13:36:26.423Z,62.20
2019-06-08T13:38:54.838Z,62.40
2019-06-08T13:41:29.046Z,62.70
2019-06-08T13:43:58.206Z,62.60
2019-06-08T13:46:29.162Z,62.90
2019-06-08T13:49:00.465Z,63.00
2019-06-08T13:51:31.535Z,63.20
2019-06-08T13:54:02.518Z,63.30
2019-06-08T13:56:33.744Z,63.30
2019-06-08T13:59:04.762Z,63.60
2019-06-08T14:01:37.868Z,64.70
2019-06-08T14:04:08.942Z,64.20
2019-06-08T14:06:40.248Z,64.30
2019-06-08T14:09:11.413Z,64.80
2019-06-08T14:11:42.821Z,64.90
2019-06-08T14:14:14.926Z,65.10
2019-06-08T14:16:50.393Z,65.30
2019-06-08T14:19:21.260Z,65.50
2019-06-08T14:21:51.359Z,65.80
2019-06-08T14:24:27.296Z,66.20
2019-06-08T14:26:55.308Z,66.40
2019-06-08T14:29:28.664Z,66.90
2019-06-08T14:31:58.896Z,67.00
2019-06-08T14:34:31.239Z,67.10
2019-06-08T14:37:02.516Z,67.40
2019-06-08T14:39:33.564Z,67.50
2019-06-08T14:42:04.543Z,67.70
2019-06-08T14:44:35.364Z,67.70
2019-06-08T14:47:08.036Z,67.70
2019-06-08T14:49:38.468Z,67.70
2019-06-08T14:52:10.869Z,67.50
2019-06-08T14:54:41.800Z,68.10
2019-06-08T14:57:12.906Z,68.00
2019-06-08T14:59:43.883Z,68.20
2019-06-08T15:02:14.918Z,68.50
2019-06-08T15:04:45.710Z,68.60
2019-06-08T15:07:20.182Z,68.70
2019-06-08T15:09:48.592Z,68.80
2019-06-08T15:12:19.668Z,69.10
2019-06-08T15:14:50.489Z,70.00
2019-06-08T15:17:21.834Z,69.50
2019-06-08T15:19:52.829Z,69.60
2019-06-08T15:22:24.159Z,69.50
2019-06-08T15:24:58.026Z,70.10
2019-06-08T15:27:32.813Z,70.00
2019-06-08T15:30:01.497Z,70.40
2019-06-08T15:32:35.392Z,70.80
2019-06-08T15:35:04.830Z,71.30
2019-06-08T15:37:38.101Z,71.30
2019-06-08T15:40:08.248Z,71.90
2019-06-08T15:42:39.287Z,72.50
2019-06-08T15:45:10.087Z,73.10
2019-06-08T15:47:40.981Z,73.80
2019-06-08T15:50:11.796Z,72.80
2019-06-08T15:52:42.810Z,72.90
2019-06-08T15:55:14.026Z,72.70
2019-06-08T15:57:44.883Z,72.90
2019-06-08T16:00:18.282Z,72.90
2019-06-08T16:02:48.202Z,73.00
2019-06-08T16:05:19.012Z,73.80
2019-06-08T16:07:49.993Z,73.50
2019-06-08T16:10:21.084Z,74.50
2019-06-08T16:12:52.604Z,74.50
2019-06-08T16:15:24.734Z,74.20
2019-06-08T16:17:55.832Z,73.90
2019-06-08T16:20:27.551Z,73.60
2019-06-08T16:22:58.508Z,72.60
2019-06-08T16:25:34.953Z,72.20
2019-06-08T16:28:03.264Z,72.30
2019-06-08T16:30:35.068Z,72.30
2019-06-08T16:33:05.949Z,72.30
2019-06-08T16:35:36.838Z,72.20
2019-06-08T16:38:07.974Z,72.50
2019-06-08T16:40:40.377Z,72.40
2019-06-08T16:43:10.973Z,72.50
2019-06-08T16:45:42.020Z,72.30
2019-06-08T16:48:12.964Z,73.20
2019-06-08T16:50:43.991Z,72.50
2019-06-08T16:53:15.186Z,72.60
2019-06-08T16:55:45.969Z,72.70
2019-06-08T16:58:17.020Z,72.80
2019-06-08T17:00:48.144Z,72.90
2019-06-08T17:03:19.244Z,73.00
2019-06-08T17:05:50.271Z,72.90
2019-06-08T17:08:42.150Z,73.10
2019-06-08T17:11:13.068Z,73.40
2019-06-08T17:13:44.381Z,73.10
2019-06-08T17:16:15.262Z,73.00
2019-06-08T17:18:46.223Z,73.30
2019-06-08T17:21:17.244Z,73.70
2019-06-08T17:23:48.163Z,73.60
2019-06-08T17:26:20.438Z,73.90
2019-06-08T17:28:51.535Z,73.80
2019-06-08T17:31:42.488Z,74.30
2019-06-08T17:34:13.355Z,74.60
2019-06-08T17:36:44.164Z,74.70
2019-06-08T17:39:14.913Z,74.60
2019-06-08T17:41:45.733Z,74.80
2019-06-08T17:44:16.725Z,74.50
2019-06-08T17:46:47.687Z,74.50
2019-06-08T17:49:18.647Z,74.30
2019-06-08T17:51:49.406Z,74.40
2019-06-08T17:54:20.283Z,74.10
2019-06-08T17:56:51.216Z,74.10
2019-06-08T17:59:22.335Z,74.10
2019-06-08T18:01:53.201Z,74.10
2019-06-08T18:04:24.328Z,73.80
2019-06-08T18:06:55.080Z,73.90
2019-06-08T18:09:28.016Z,73.80
2019-06-08T18:11:59.639Z,73.50
2019-06-08T18:14:30.964Z,73.50
2019-06-08T18:17:01.926Z,73.40
2019-06-08T18:19:34.163Z,73.30
2019-06-08T18:22:06.795Z,73.30
2019-06-08T18:24:39.443Z,73.50
2019-06-08T18:27:11.116Z,73.40
2019-06-08T18:29:42.937Z,73.90
2019-06-08T18:32:14.850Z,73.80
2019-06-08T18:34:47.925Z,73.80
2019-06-08T18:37:18.243Z,73.90
2019-06-08T18:39:49.595Z,74.20
2019-06-08T18:42:21.023Z,74.30
2019-06-08T18:44:52.137Z,74.50
2019-06-08T18:47:22.937Z,74.60
2019-06-08T18:49:53.710Z,74.70
2019-06-08T18:52:24.541Z,74.70
2019-06-08T18:54:57.706Z,74.90
2019-06-08T18:57:27.766Z,74.90
2019-06-08T18:59:58.600Z,74.70
2019-06-08T19:02:29.742Z,74.80
2019-06-08T19:05:00.628Z,74.90
2019-06-08T19:07:31.787Z,75.40
2019-06-08T19:10:03.741Z,74.90
2019-06-08T19:12:38.367Z,74.90
2019-06-08T19:15:11.358Z,74.90
2019-06-08T19:17:43.631Z,75.00
2019-06-08T19:20:12.153Z,74.30
2019-06-08T19:22:46.518Z,75.10
2019-06-08T19:25:17.573Z,75.50
2019-06-08T19:27:53.077Z,75.50
2019-06-08T19:30:24.619Z,75.70
2019-06-08T19:32:54.281Z,76.10
2019-06-08T19:35:27.223Z,75.80
2019-06-08T19:37:58.302Z,75.90
2019-06-08T19:40:29.292Z,76.10
2019-06-08T19:43:01.452Z,75.90
2019-06-08T19:45:32.429Z,76.10
2019-06-08T19:48:03.578Z,76.20
2019-06-08T19:50:34.740Z,76.20
2019-06-08T19:53:07.350Z,76.30
2019-06-08T19:55:39.115Z,76.30
2019-06-08T19:58:10.487Z,76.20
2019-06-08T20:00:42.344Z,76.00
2019-06-08T20:03:13.613Z,76.10
2019-06-08T20:05:45.374Z,76.40
2019-06-08T20:08:17.548Z,76.50
2019-06-08T20:10:49.604Z,76.60
2019-06-08T20:13:21.066Z,76.90
2019-06-08T20:15:58.314Z,76.70
2019-06-08T20:18:25.018Z,77.00
2019-06-08T20:20:58.430Z,76.90
2019-06-08T20:23:28.426Z,76.80
2019-06-08T20:26:00.808Z,76.90
2019-06-08T20:28:33.279Z,76.60
2019-06-08T20:31:04.182Z,77.10
2019-06-08T20:33:34.923Z,77.00
2019-06-08T20:36:08.037Z,77.00
2019-06-08T20:38:41.988Z,77.20
2019-06-08T20:41:10.754Z,78.20
2019-06-08T20:43:42.611Z,77.60
2019-06-08T20:46:13.758Z,77.60
2019-06-08T20:48:44.508Z,78.00
2019-06-08T20:51:17.248Z,78.20
2019-06-08T20:53:50.323Z,78.30
2019-06-08T20:56:20.557Z,78.10
2019-06-08T20:58:52.499Z,78.30
2019-06-08T21:01:23.929Z,78.50
2019-06-08T21:03:56.994Z,78.60
2019-06-08T21:06:27.973Z,79.10
2019-06-08T21:08:59.887Z,78.90
2019-06-08T21:11:30.958Z,78.70
2019-06-08T21:14:01.882Z,79.00
2019-06-08T21:16:33.216Z,78.80
2019-06-08T21:19:04.306Z,78.80
2019-06-08T21:21:37.558Z,79.10
2019-06-08T21:24:07.861Z,79.80
2019-06-08T21:26:38.645Z,79.00
2019-06-08T21:29:11.053Z,79.50
2019-06-08T21:31:42.021Z,79.40
2019-06-08T21:34:13.116Z,79.20
2019-06-08T21:36:44.014Z,79.30
2019-06-08T21:39:17.255Z,79.10
2019-06-08T21:41:50.083Z,79.10
2019-06-08T21:44:19.551Z,79.10
2019-06-08T21:46:51.759Z,79.20
2019-06-08T21:49:22.522Z,79.50
2019-06-08T21:51:54.464Z,79.40
2019-06-08T21:54:27.183Z,79.70
2019-06-08T21:57:00.668Z,79.50
2019-06-08T22:00:34.664Z,79.60
2019-06-08T22:02:44.543Z,80.10
2019-06-08T22:05:15.421Z,79.90
2019-06-08T22:07:47.169Z,80.10
2019-06-08T22:10:18.299Z,80.30
2019-06-08T22:12:51.794Z,80.10
2019-06-08T22:15:21.731Z,80.10
2019-06-08T22:17:53.122Z,80.20
2019-06-08T22:20:24.155Z,80.30
2019-06-08T22:22:55.151Z,80.20
2019-06-08T22:25:27.832Z,80.20
2019-06-08T22:27:59.817Z,80.00
2019-06-08T22:30:39.218Z,80.10
2019-06-08T22:33:03.954Z,80.10
2019-06-08T22:35:37.089Z,80.00
2019-06-08T22:38:08.430Z,79.90
2019-06-08T22:40:39.674Z,79.90
2019-06-08T22:43:12.081Z,80.00
2019-06-08T22:45:42.938Z,79.90
2019-06-08T22:48:14.167Z,80.30
2019-06-08T22:50:47.524Z,80.10
2019-06-08T22:53:17.463Z,81.00
2019-06-08T22:55:48.510Z,82.10
2019-06-08T22:58:19.483Z,81.50
2019-06-08T23:00:52.961Z,81.70
2019-06-08T23:03:22.737Z,81.60
2019-06-08T23:05:54.796Z,81.70
2019-06-08T23:08:26.021Z,81.70
2019-06-08T23:10:58.930Z,81.80
2019-06-08T23:13:29.234Z,81.80
2019-06-08T23:16:02.508Z,81.80
2019-06-08T23:18:32.692Z,81.70
2019-06-08T23:21:06.564Z,81.70
2019-06-08T23:23:38.063Z,81.90
2019-06-08T23:26:10.427Z,81.90
2019-06-08T23:28:41.572Z,81.80
2019-06-08T23:31:21.499Z,81.50
2019-06-08T23:33:44.841Z,81.50
2019-06-08T23:36:45.020Z,81.10
2019-06-08T23:38:48.627Z,81.10
2019-06-08T23:41:19.682Z,81.30
2019-06-08T23:43:50.606Z,80.80
2019-06-08T23:46:23.080Z,81.00
2019-06-08T23:48:53.937Z,81.00
2019-06-08T23:51:27.373Z,80.80
2019-06-08T23:53:59.667Z,80.40
2019-06-08T23:56:31.009Z,80.30
2019-06-08T23:59:03.096Z,80.10
